Time;durP1;ratioP1;P1;durP2;ratioP2;P2;SDS_P1;SDS_P2;PMS_P1;PMS_P2;Temp;Humidity;BMP_temperature;BMP_pressure;BME280_temperature;BME280_humidity;BME280_pressure;Samples;Min_cycle;Max_cycle;Signal;HPM_P1;HPM_P2
2023/08/13 00:02:05;;;;;;;3.88;2.42;;;;;;;;;;5026249;28;20041;-87
2023/08/13 00:04:31;;;;;;;7.40;2.08;;;;;;;;;;5009973;28;20026;-84
2023/08/13 00:07:00;;;;;;;9.23;2.00;;;;;;;;;;5010635;28;20096;-87
2023/08/13 00:09:29;;;;;;;9.23;2.88;;;;;;;;;;5025396;28;20029;-87
2023/08/13 00:11:55;;;;;;;6.03;1.85;;;;;;;;;;5005512;28;20041;-84
2023/08/13 00:14:21;;;;;;;4.53;2.22;;;;;;;;;;5025375;28;20628;-87
2023/08/13 00:16:47;;;;;;;12.75;2.50;;;;;;;;;;5023944;28;20037;-84
2023/08/13 00:19:13;;;;;;;10.70;2.60;;;;;;;;;;5021721;28;20029;-85
2023/08/13 00:21:39;;;;;;;7.60;3.50;;;;;;;;;;5026445;28;20072;-88
2023/08/13 00:24:08;;;;;;;8.02;3.60;;;;;;;;;;5027524;28;20144;-86
2023/08/13 00:26:36;;;;;;;8.13;2.92;;;;;;;;;;5027789;28;20136;-84
2023/08/13 00:29:02;;;;;;;10.68;3.38;;;;;;;;;;5025698;28;20089;-85
2023/08/13 00:31:29;;;;;;;5.10;2.40;;;;;;;;;;5010003;28;20434;-85
2023/08/13 00:33:55;;;;;;;6.55;3.13;;;;;;;;;;5026227;28;20038;-88
2023/08/13 00:36:21;;;;;;;6.47;2.42;;;;;;;;;;5009763;28;20044;-85
2023/08/13 00:38:47;;;;;;;7.28;2.35;;;;;;;;;;5009468;28;20034;-82
2023/08/13 00:41:15;;;;;;;9.43;2.30;;;;;;;;;;5012713;28;20132;-85
2023/08/13 00:43:41;;;;;;;8.70;2.33;;;;;;;;;;4988571;28;1086562;-84
2023/08/13 00:46:10;;;;;;;10.00;2.60;;;;;;;;;;5012715;28;20033;-88
2023/08/13 00:48:37;;;;;;;8.38;3.65;;;;;;;;;;5027382;28;20030;-86
2023/08/13 00:51:03;;;;;;;9.05;3.55;;;;;;;;;;5011812;28;20038;-83
2023/08/13 00:53:29;;;;;;;6.07;3.15;;;;;;;;;;5011375;28;20044;-87
2023/08/13 00:55:56;;;;;;;6.38;1.88;;;;;;;;;;5026652;28;20035;-84
2023/08/13 00:58:22;;;;;;;5.78;2.20;;;;;;;;;;5010533;28;20029;-83
2023/08/13 01:00:48;;;;;;;5.10;1.95;;;;;;;;;;5011247;28;20033;-83
2023/08/13 01:03:14;;;;;;;8.63;2.40;;;;;;;;;;5005538;28;20038;-86
2023/08/13 01:05:50;;;;;;;8.63;2.20;;;;;;;;;;5010481;28;20026;-84
2023/08/13 01:08:23;;;;;;;8.82;3.25;;;;;;;;;;5005759;28;20123;-87
2023/08/13 01:10:53;;;;;;;6.72;3.80;;;;;;;;;;5005949;28;20104;-85
2023/08/13 01:13:22;;;;;;;11.50;3.10;;;;;;;;;;5010327;28;20029;-81
2023/08/13 01:15:48;;;;;;;6.88;3.75;;;;;;;;;;5010325;28;20038;-84
2023/08/13 01:18:14;;;;;;;10.00;3.70;;;;;;;;;;5021504;28;20034;-87
2023/08/13 01:20:43;;;;;;;5.47;2.60;;;;;;;;;;5011536;28;20037;-82
2023/08/13 01:23:09;;;;;;;5.00;2.80;;;;;;;;;;5010248;28;20034;-89
2023/08/13 01:25:35;;;;;;;5.93;2.33;;;;;;;;;;5024607;28;20029;-86
2023/08/13 01:28:11;;;;;;;12.73;3.28;;;;;;;;;;5009768;28;20029;-80
2023/08/13 01:30:51;;;;;;;6.80;3.97;;;;;;;;;;5013936;28;20048;-81
2023/08/13 01:33:26;;;;;;;4.70;2.50;;;;;;;;;;5025501;28;20041;-80
2023/08/13 01:35:52;;;;;;;5.25;2.55;;;;;;;;;;5025880;28;20041;-85
2023/08/13 01:38:18;;;;;;;6.00;2.60;;;;;;;;;;5009700;28;20710;-86
2023/08/13 01:40:44;;;;;;;9.02;2.22;;;;;;;;;;5021199;28;20034;-85
2023/08/13 01:43:10;;;;;;;8.70;3.13;;;;;;;;;;5026415;28;20053;-85
2023/08/13 01:45:36;;;;;;;7.13;2.80;;;;;;;;;;5021987;28;20030;-85
2023/08/13 01:48:02;;;;;;;6.40;3.78;;;;;;;;;;5009398;28;20440;-84
2023/08/13 01:50:28;;;;;;;5.45;2.30;;;;;;;;;;5010835;28;20089;-80
2023/08/13 01:52:54;;;;;;;5.13;2.75;;;;;;;;;;5027337;28;20494;-84
2023/08/13 01:55:22;;;;;;;6.32;3.05;;;;;;;;;;5010497;28;20026;-81
2023/08/13 01:57:51;;;;;;;7.22;2.20;;;;;;;;;;5028104;28;20128;-81
2023/08/13 02:00:17;;;;;;;5.40;2.72;;;;;;;;;;5006864;28;20037;-82
2023/08/13 02:02:43;;;;;;;5.75;2.67;;;;;;;;;;5026997;28;20033;-83
2023/08/13 02:05:09;;;;;;;7.00;2.67;;;;;;;;;;5015786;28;20037;-81
2023/08/13 02:07:35;;;;;;;6.50;2.65;;;;;;;;;;5016384;28;20039;-80
2023/08/13 02:10:01;;;;;;;5.40;3.13;;;;;;;;;;5034466;28;20033;-85
2023/08/13 02:12:27;;;;;;;7.70;2.72;;;;;;;;;;5025350;28;20465;-75
2023/08/13 02:14:53;;;;;;;7.40;3.33;;;;;;;;;;5020477;28;20044;-84
2023/08/13 02:17:19;;;;;;;6.07;2.70;;;;;;;;;;5041029;28;20061;-75
2023/08/13 02:19:45;;;;;;;9.82;2.83;;;;;;;;;;5022762;28;20105;-79
2023/08/13 02:22:14;;;;;;;10.13;3.00;;;;;;;;;;5044880;28;20042;-80
2023/08/13 02:24:40;;;;;;;10.48;2.28;;;;;;;;;;5045176;28;20085;-76
2023/08/13 02:27:06;;;;;;;5.35;2.55;;;;;;;;;;5047888;28;20045;-77
2023/08/13 02:29:32;;;;;;;5.53;2.50;;;;;;;;;;5032789;28;20026;-78
2023/08/13 02:31:58;;;;;;;7.55;2.60;;;;;;;;;;5048712;28;20143;-77
2023/08/13 02:34:24;;;;;;;11.95;2.13;;;;;;;;;;5049475;28;20034;-78
2023/08/13 02:36:50;;;;;;;6.85;2.45;;;;;;;;;;5034954;28;20065;-77
2023/08/13 02:39:19;;;;;;;11.00;2.60;;;;;;;;;;5052428;28;20033;-75
2023/08/13 02:41:45;;;;;;;6.40;2.65;;;;;;;;;;5039073;28;20120;-76
2023/08/13 02:44:11;;;;;;;8.50;3.25;;;;;;;;;;5052689;28;20029;-74
2023/08/13 02:46:37;;;;;;;7.20;3.38;;;;;;;;;;5039173;28;20101;-73
2023/08/13 02:49:03;;;;;;;12.85;2.80;;;;;;;;;;5056107;28;20051;-74
2023/08/13 02:51:29;;;;;;;5.03;2.10;;;;;;;;;;5037996;28;20021;-73
2023/08/13 02:53:55;;;;;;;5.47;2.63;;;;;;;;;;5037565;28;20030;-74
2023/08/13 02:56:21;;;;;;;6.07;2.35;;;;;;;;;;5038695;28;20049;-74
2023/08/13 02:58:49;;;;;;;8.93;2.42;;;;;;;;;;5038414;28;20034;-74
2023/08/13 03:01:15;;;;;;;7.55;2.17;;;;;;;;;;5040201;28;20021;-74
2023/08/13 03:03:44;;;;;;;7.22;2.70;;;;;;;;;;5054411;28;20033;-74
2023/08/13 03:06:10;;;;;;;7.82;3.00;;;;;;;;;;5053854;28;20078;-73
2023/08/13 03:08:36;;;;;;;15.52;2.80;;;;;;;;;;5050997;28;20041;-73
2023/08/13 03:11:02;;;;;;;7.13;2.33;;;;;;;;;;5051797;28;20025;-73
2023/08/13 03:13:30;;;;;;;8.55;3.35;;;;;;;;;;5037482;28;20065;-73
2023/08/13 03:15:59;;;;;;;8.00;2.83;;;;;;;;;;5050357;28;20006;-73
2023/08/13 03:18:27;;;;;;;5.30;2.47;;;;;;;;;;5037744;28;20065;-74
2023/08/13 03:20:53;;;;;;;8.43;2.80;;;;;;;;;;5036910;28;20030;-73
2023/08/13 03:23:19;;;;;;;6.93;2.60;;;;;;;;;;5038145;28;20037;-73
2023/08/13 03:25:45;;;;;;;6.05;2.85;;;;;;;;;;5037318;28;20022;-73
2023/08/13 03:28:13;;;;;;;11.32;2.88;;;;;;;;;;5055722;28;20038;-73
2023/08/13 03:30:39;;;;;;;7.38;2.92;;;;;;;;;;5054122;28;20086;-73
2023/08/13 03:33:05;;;;;;;8.90;2.60;;;;;;;;;;5034006;28;20026;-73
2023/08/13 03:35:36;;;;;;;6.93;3.65;;;;;;;;;;5036957;28;20010;-73
2023/08/13 03:38:03;;;;;;;12.10;3.63;;;;;;;;;;5037262;28;20014;-73
2023/08/13 03:40:32;;;;;;;7.97;3.22;;;;;;;;;;5038348;28;20443;-73
2023/08/13 03:43:00;;;;;;;3.95;2.40;;;;;;;;;;5037315;28;20060;-73
2023/08/13 03:45:26;;;;;;;6.75;2.83;;;;;;;;;;5054086;28;20026;-73
2023/08/13 03:47:54;;;;;;;12.73;3.45;;;;;;;;;;5053275;28;20025;-73
2023/08/13 03:50:21;;;;;;;7.43;2.45;;;;;;;;;;5053426;28;20026;-73
2023/08/13 03:52:47;;;;;;;5.68;3.33;;;;;;;;;;5040132;28;20026;-73
2023/08/13 03:55:13;;;;;;;8.43;3.00;;;;;;;;;;5036596;28;20057;-73
2023/08/13 03:57:38;;;;;;;11.13;2.97;;;;;;;;;;5053465;28;20036;-73
2023/08/13 04:00:05;;;;;;;7.95;2.63;;;;;;;;;;5036044;28;20235;-73
2023/08/13 04:02:34;;;;;;;6.13;2.65;;;;;;;;;;5036862;28;20061;-73
2023/08/13 04:05:02;;;;;;;8.68;2.75;;;;;;;;;;5052046;28;20037;-73
2023/08/13 04:07:28;;;;;;;8.50;2.78;;;;;;;;;;5053677;28;20018;-73
2023/08/13 04:09:56;;;;;;;10.57;2.67;;;;;;;;;;5049704;28;20024;-73
2023/08/13 04:12:22;;;;;;;6.90;3.17;;;;;;;;;;5049254;28;20033;-73
2023/08/13 04:14:51;;;;;;;11.65;3.17;;;;;;;;;;5040754;28;20044;-73
2023/08/13 04:17:16;;;;;;;9.75;2.78;;;;;;;;;;5037513;28;20034;-73
2023/08/13 04:19:42;;;;;;;7.70;3.20;;;;;;;;;;5049148;28;20033;-73
2023/08/13 04:22:08;;;;;;;7.15;2.95;;;;;;;;;;5037475;28;20148;-73
2023/08/13 04:24:34;;;;;;;7.00;2.22;;;;;;;;;;5037975;28;20049;-73
2023/08/13 04:27:00;;;;;;;4.63;2.65;;;;;;;;;;5035391;28;20075;-73
2023/08/13 04:29:26;;;;;;;10.05;3.08;;;;;;;;;;5034955;28;20036;-73
2023/08/13 04:31:52;;;;;;;5.20;2.33;;;;;;;;;;5052898;28;20017;-73
2023/08/13 04:34:18;;;;;;;6.28;2.25;;;;;;;;;;5051143;28;20065;-73
2023/08/13 04:36:44;;;;;;;7.80;2.70;;;;;;;;;;5035545;28;20014;-73
2023/08/13 04:39:12;;;;;;;8.13;2.55;;;;;;;;;;5036475;28;20029;-73
2023/08/13 04:41:40;;;;;;;7.50;2.40;;;;;;;;;;5037367;28;20049;-73
2023/08/13 04:44:06;;;;;;;6.22;3.03;;;;;;;;;;5037142;28;20042;-73
2023/08/13 04:46:32;;;;;;;8.02;2.20;;;;;;;;;;5033930;28;20025;-73
2023/08/13 04:49:01;;;;;;;6.38;2.50;;;;;;;;;;5054616;28;20018;-73
2023/08/13 04:51:29;;;;;;;5.57;2.40;;;;;;;;;;5036041;28;20026;-73
2023/08/13 04:53:59;;;;;;;11.65;3.05;;;;;;;;;;5036291;28;20026;-73
2023/08/13 04:56:25;;;;;;;4.05;2.60;;;;;;;;;;5037783;28;20025;-75
2023/08/13 04:58:51;;;;;;;7.53;2.80;;;;;;;;;;5051045;28;20022;-73
2023/08/13 05:01:23;;;;;;;7.85;2.40;;;;;;;;;;5031741;28;20052;-74
2023/08/13 05:03:49;;;;;;;8.57;2.72;;;;;;;;;;5036284;28;20033;-73
2023/08/13 05:06:17;;;;;;;11.52;3.17;;;;;;;;;;5036686;28;20224;-73
2023/08/13 05:08:46;;;;;;;8.80;2.70;;;;;;;;;;5036448;28;20127;-73
2023/08/13 05:11:12;;;;;;;7.20;2.97;;;;;;;;;;5052105;28;20093;-74
2023/08/13 05:13:38;;;;;;;16.98;3.00;;;;;;;;;;5036666;28;20014;-73
2023/08/13 05:16:04;;;;;;;12.55;3.00;;;;;;;;;;5035585;28;20018;-74
2023/08/13 05:18:30;;;;;;;7.57;2.65;;;;;;;;;;5049296;28;20022;-73
2023/08/13 05:20:56;;;;;;;8.13;3.20;;;;;;;;;;5034625;28;20014;-73
2023/08/13 05:23:22;;;;;;;14.55;3.33;;;;;;;;;;5037423;28;20034;-73
2023/08/13 05:25:48;;;;;;;13.18;3.10;;;;;;;;;;5051829;28;20066;-73
2023/08/13 05:28:16;;;;;;;8.50;2.80;;;;;;;;;;5037913;28;21111;-73
2023/08/13 05:30:42;;;;;;;4.50;2.60;;;;;;;;;;5036102;28;20026;-74
2023/08/13 05:33:08;;;;;;;5.95;2.92;;;;;;;;;;5035530;28;20042;-73
2023/08/13 05:35:37;;;;;;;10.57;3.13;;;;;;;;;;5051138;28;20090;-73
2023/08/13 05:38:03;;;;;;;8.88;3.00;;;;;;;;;;5052606;28;20080;-73
2023/08/13 05:40:31;;;;;;;8.85;2.42;;;;;;;;;;5040078;28;20042;-73
2023/08/13 05:42:57;;;;;;;7.57;3.05;;;;;;;;;;5038600;28;20049;-73
2023/08/13 05:45:23;;;;;;;6.60;3.03;;;;;;;;;;5039318;28;20026;-74
2023/08/13 05:47:51;;;;;;;11.02;2.78;;;;;;;;;;5039144;28;20022;-73
2023/08/13 05:50:17;;;;;;;8.60;2.55;;;;;;;;;;5037223;28;20017;-75
2023/08/13 05:52:45;;;;;;;10.57;3.70;;;;;;;;;;5057160;28;20005;-74
2023/08/13 05:55:11;;;;;;;5.93;2.92;;;;;;;;;;5036122;28;20030;-76
2023/08/13 05:57:37;;;;;;;7.32;2.60;;;;;;;;;;5035727;28;20065;-81
2023/08/13 06:00:13;;;;;;;8.32;3.22;;;;;;;;;;5028201;28;20048;-77
2023/08/13 06:02:39;;;;;;;7.50;2.97;;;;;;;;;;5040011;28;20335;-79
2023/08/13 06:05:09;;;;;;;10.38;3.75;;;;;;;;;;5020903;28;20113;-80
2023/08/13 06:07:35;;;;;;;9.65;3.72;;;;;;;;;;5019519;28;20036;-83
2023/08/13 06:10:01;;;;;;;9.82;3.13;;;;;;;;;;5018234;28;20038;-78
2023/08/13 06:12:27;;;;;;;9.30;2.92;;;;;;;;;;5017398;28;20041;-84
2023/08/13 06:14:53;;;;;;;8.75;3.03;;;;;;;;;;5013735;28;20112;-83
2023/08/13 06:17:19;;;;;;;8.10;3.15;;;;;;;;;;5012766;28;20034;-82
2023/08/13 06:19:50;;;;;;;8.75;3.17;;;;;;;;;;5025414;28;20463;-86
2023/08/13 06:22:16;;;;;;;8.43;3.08;;;;;;;;;;5029035;28;20864;-86
2023/08/13 06:24:42;;;;;;;7.60;3.72;;;;;;;;;;5027759;28;20470;-85
2023/08/13 06:27:11;;;;;;;7.18;3.58;;;;;;;;;;5028920;28;20591;-87
2023/08/13 06:29:37;;;;;;;9.55;3.53;;;;;;;;;;5011359;28;20123;-85
2023/08/13 06:32:03;;;;;;;8.55;3.25;;;;;;;;;;5015031;28;20169;-87
2023/08/13 06:34:29;;;;;;;7.07;3.22;;;;;;;;;;5012931;28;20112;-82
2023/08/13 06:36:55;;;;;;;6.32;2.85;;;;;;;;;;5011728;28;20092;-83
2023/08/13 06:39:24;;;;;;;10.63;3.17;;;;;;;;;;5028465;28;20124;-88
2023/08/13 06:41:52;;;;;;;12.95;3.08;;;;;;;;;;5013659;28;20115;-84
2023/08/13 06:44:19;;;;;;;8.85;2.78;;;;;;;;;;5013821;28;20117;-87
2023/08/13 06:46:45;;;;;;;9.75;3.72;;;;;;;;;;5013422;28;20455;-83
2023/08/13 06:49:11;;;;;;;8.93;4.07;;;;;;;;;;5008301;28;20034;-83
2023/08/13 06:51:40;;;;;;;7.90;3.67;;;;;;;;;;5028331;28;20041;-88
2023/08/13 06:54:06;;;;;;;9.13;3.67;;;;;;;;;;5024901;28;20083;-80
2023/08/13 06:56:34;;;;;;;10.55;4.22;;;;;;;;;;5012333;28;20121;-83
2023/08/13 06:59:00;;;;;;;12.30;3.53;;;;;;;;;;5011937;28;20029;-83
2023/08/13 07:01:28;;;;;;;8.55;3.63;;;;;;;;;;5013111;28;20230;-89
2023/08/13 07:03:54;;;;;;;8.27;3.08;;;;;;;;;;5027918;28;20045;-86
2023/08/13 07:06:21;;;;;;;7.70;2.95;;;;;;;;;;5013988;28;20033;-84
2023/08/13 07:08:47;;;;;;;6.97;2.80;;;;;;;;;;5028705;28;20385;-87
2023/08/13 07:11:13;;;;;;;10.63;3.80;;;;;;;;;;5027003;28;20063;-85
2023/08/13 07:13:41;;;;;;;9.18;3.05;;;;;;;;;;5025256;28;20046;-85
2023/08/13 07:16:10;;;;;;;13.18;3.15;;;;;;;;;;5029300;28;20064;-83
2023/08/13 07:18:36;;;;;;;10.80;3.50;;;;;;;;;;5011637;28;20124;-81
2023/08/13 07:21:04;;;;;;;13.40;3.30;;;;;;;;;;5023786;28;20407;-86
2023/08/13 07:23:30;;;;;;;11.00;3.50;;;;;;;;;;5012979;28;20034;-86
2023/08/13 07:26:00;;;;;;;13.85;3.47;;;;;;;;;;5016355;28;20030;-86
2023/08/13 07:28:26;;;;;;;9.25;2.85;;;;;;;;;;5028141;28;20113;-86
2023/08/13 07:30:55;;;;;;;9.80;2.80;;;;;;;;;;5012762;28;20101;-82
2023/08/13 07:33:21;;;;;;;16.42;3.50;;;;;;;;;;5024189;28;20037;-84
2023/08/13 07:35:47;;;;;;;8.60;2.75;;;;;;;;;;5028291;28;20569;-87
2023/08/13 07:38:14;;;;;;;7.22;2.28;;;;;;;;;;5011462;28;20033;-83
2023/08/13 07:40:42;;;;;;;8.00;2.92;;;;;;;;;;5029928;28;20451;-84
2023/08/13 07:43:09;;;;;;;10.07;2.95;;;;;;;;;;5027184;28;20038;-87
2023/08/13 07:45:35;;;;;;;10.68;2.97;;;;;;;;;;5011780;28;20107;-83
2023/08/13 07:48:01;;;;;;;8.90;2.55;;;;;;;;;;5012152;28;20037;-85
2023/08/13 07:50:30;;;;;;;12.45;2.63;;;;;;;;;;5010750;28;20165;-87
2023/08/13 07:52:56;;;;;;;7.28;2.38;;;;;;;;;;5011587;28;20041;-83
2023/08/13 07:55:27;;;;;;;6.57;1.92;;;;;;;;;;5025570;28;20148;-87
2023/08/13 07:57:52;;;;;;;7.60;2.13;;;;;;;;;;5009975;28;20447;-81
2023/08/13 08:00:21;;;;;;;7.55;1.83;;;;;;;;;;5028713;28;20038;-88
2023/08/13 08:02:47;;;;;;;9.07;2.13;;;;;;;;;;5011752;28;20041;-82
2023/08/13 08:05:13;;;;;;;8.85;1.77;;;;;;;;;;5027051;28;20034;-83
2023/08/13 08:07:39;;;;;;;8.60;1.83;;;;;;;;;;5027069;28;20830;-87
2023/08/13 08:10:06;;;;;;;11.73;2.10;;;;;;;;;;5008916;28;20029;-85
2023/08/13 08:12:34;;;;;;;5.60;1.85;;;;;;;;;;5010278;28;20030;-85
2023/08/13 08:15:02;;;;;;;4.28;1.33;;;;;;;;;;5026736;28;20477;-81
2023/08/13 08:17:28;;;;;;;6.68;1.67;;;;;;;;;;5025497;28;20044;-86
2023/08/13 08:19:54;;;;;;;7.70;2.05;;;;;;;;;;5025669;28;20029;-85
2023/08/13 08:22:20;;;;;;;9.25;1.67;;;;;;;;;;5010889;28;20038;-82
2023/08/13 08:24:46;;;;;;;7.13;1.98;;;;;;;;;;5024466;28;20113;-87
2023/08/13 08:27:12;;;;;;;8.50;1.50;;;;;;;;;;5011049;28;20030;-81
2023/08/13 08:29:41;;;;;;;4.05;1.20;;;;;;;;;;5027111;28;20049;-82
2023/08/13 08:32:07;;;;;;;8.57;1.95;;;;;;;;;;5006941;28;20267;-81
2023/08/13 08:34:34;;;;;;;8.50;1.45;;;;;;;;;;5025314;28;20037;-85
2023/08/13 08:37:00;;;;;;;7.03;1.90;;;;;;;;;;5026232;28;20030;-83
2023/08/13 08:39:26;;;;;;;4.53;1.45;;;;;;;;;;5010406;28;20034;-85
2023/08/13 08:41:58;;;;;;;9.85;2.22;;;;;;;;;;5007814;28;20029;-82
2023/08/13 08:44:24;;;;;;;9.55;1.92;;;;;;;;;;5010608;28;20030;-84
2023/08/13 08:46:51;;;;;;;6.03;1.75;;;;;;;;;;5010337;28;20037;-83
2023/08/13 08:49:18;;;;;;;5.63;1.63;;;;;;;;;;5008899;28;20107;-80
2023/08/13 08:51:45;;;;;;;5.90;1.60;;;;;;;;;;5025745;28;20065;-84
2023/08/13 08:54:11;;;;;;;9.45;1.90;;;;;;;;;;5021146;28;20029;-82
2023/08/13 08:56:39;;;;;;;7.82;2.25;;;;;;;;;;5014086;28;20041;-83
2023/08/13 08:59:05;;;;;;;7.13;1.73;;;;;;;;;;5010520;28;20021;-82
2023/08/13 09:01:32;;;;;;;9.23;1.95;;;;;;;;;;5013445;28;20127;-82
2023/08/13 09:03:58;;;;;;;4.90;1.75;;;;;;;;;;5010662;28;20041;-83
2023/08/13 09:06:24;;;;;;;8.25;2.05;;;;;;;;;;5010069;28;20025;-85
2023/08/13 09:08:50;;;;;;;8.88;2.50;;;;;;;;;;5009340;28;20033;-82
2023/08/13 09:11:18;;;;;;;9.50;2.40;;;;;;;;;;5009782;28;21063;-84
2023/08/13 09:13:51;;;;;;;6.35;2.22;;;;;;;;;;5019911;28;20536;-83
2023/08/13 09:16:17;;;;;;;12.48;2.22;;;;;;;;;;5010042;28;20030;-84
2023/08/13 09:18:43;;;;;;;7.53;1.83;;;;;;;;;;5010401;28;20029;-84
2023/08/13 09:21:09;;;;;;;6.35;2.25;;;;;;;;;;5010325;28;20533;-84
2023/08/13 09:23:38;;;;;;;7.82;1.83;;;;;;;;;;5025690;28;20037;-84
2023/08/13 09:26:04;;;;;;;7.05;2.30;;;;;;;;;;5009392;28;20113;-84
2023/08/13 09:28:30;;;;;;;8.93;2.20;;;;;;;;;;5009908;28;20029;-81
2023/08/13 09:31:02;;;;;;;11.93;3.22;;;;;;;;;;5009343;28;20034;-83
2023/08/13 09:33:29;;;;;;;9.52;2.50;;;;;;;;;;5009352;28;20048;-84
2023/08/13 09:35:57;;;;;;;7.55;2.10;;;;;;;;;;5009510;28;20050;-81
2023/08/13 09:38:23;;;;;;;14.05;3.00;;;;;;;;;;5009598;28;20089;-82
2023/08/13 09:40:49;;;;;;;8.40;2.47;;;;;;;;;;5010404;28;20033;-82
2023/08/13 09:43:17;;;;;;;11.73;2.42;;;;;;;;;;5009023;28;20034;-83
2023/08/13 09:45:46;;;;;;;8.35;2.38;;;;;;;;;;5023876;28;20499;-82
2023/08/13 09:48:17;;;;;;;7.40;1.88;;;;;;;;;;5023538;28;20125;-82
2023/08/13 09:50:43;;;;;;;11.00;2.30;;;;;;;;;;5024070;28;20029;-80
2023/08/13 09:53:11;;;;;;;11.18;3.55;;;;;;;;;;5007877;28;20033;-82
2023/08/13 09:55:41;;;;;;;10.55;2.92;;;;;;;;;;5010121;28;20041;-81
2023/08/13 09:58:10;;;;;;;8.18;2.72;;;;;;;;;;5023527;28;20038;-82
2023/08/13 10:00:36;;;;;;;10.85;2.38;;;;;;;;;;5009157;28;20037;-80
2023/08/13 10:03:02;;;;;;;8.23;2.15;;;;;;;;;;5008725;28;20025;-84
2023/08/13 10:05:32;;;;;;;11.57;2.03;;;;;;;;;;5008766;28;20026;-82
2023/08/13 10:07:58;;;;;;;6.40;1.83;;;;;;;;;;5009640;28;20029;-83
2023/08/13 10:10:24;;;;;;;6.93;2.13;;;;;;;;;;5007973;28;20037;-83
2023/08/13 10:12:51;;;;;;;3.38;1.58;;;;;;;;;;5024911;28;20060;-84
2023/08/13 10:15:17;;;;;;;6.78;2.25;;;;;;;;;;5004128;28;20076;-82
2023/08/13 10:17:44;;;;;;;8.35;2.65;;;;;;;;;;5008914;28;20043;-84
2023/08/13 10:20:10;;;;;;;4.85;2.00;;;;;;;;;;5008822;28;20055;-85
2023/08/13 10:22:39;;;;;;;8.27;2.33;;;;;;;;;;5009521;28;20056;-84
2023/08/13 10:25:07;;;;;;;7.57;1.98;;;;;;;;;;5006200;28;20117;-82
2023/08/13 10:27:37;;;;;;;5.47;2.03;;;;;;;;;;5012142;28;20022;-84
2023/08/13 10:30:14;;;;;;;5.63;2.75;;;;;;;;;;5023986;28;20870;-85
2023/08/13 10:32:49;;;;;;;8.50;1.67;;;;;;;;;;5022741;28;20026;-84
2023/08/13 10:35:22;;;;;;;5.13;1.92;;;;;;;;;;5009865;28;20034;-84
2023/08/13 10:37:54;;;;;;;5.65;2.25;;;;;;;;;;5012150;28;20463;-79
2023/08/13 10:40:21;;;;;;;12.70;5.47;;;;;;;;;;5011077;28;20034;-82
2023/08/13 10:42:48;;;;;;;7.53;3.17;;;;;;;;;;5011167;28;20092;-85
2023/08/13 10:45:27;;;;;;;8.50;2.38;;;;;;;;;;5011641;28;20033;-83
2023/08/13 10:47:55;;;;;;;6.47;2.30;;;;;;;;;;5012561;28;20026;-81
2023/08/13 10:50:32;;;;;;;6.90;2.33;;;;;;;;;;5013009;28;20026;-82
2023/08/13 10:53:01;;;;;;;7.28;1.95;;;;;;;;;;5009486;28;20029;-80
2023/08/13 10:55:31;;;;;;;6.95;2.63;;;;;;;;;;5012096;28;20038;-82
2023/08/13 10:57:59;;;;;;;4.70;1.73;;;;;;;;;;5010691;28;20033;-82
2023/08/13 11:00:29;;;;;;;7.35;2.53;;;;;;;;;;5011294;28;20026;-83
2023/08/13 11:03:14;;;;;;;8.32;2.28;;;;;;;;;;5027165;28;20025;-80
2023/08/13 11:05:41;;;;;;;7.82;2.13;;;;;;;;;;5027949;28;20029;-84
2023/08/13 11:08:07;;;;;;;9.00;2.10;;;;;;;;;;5006186;28;20344;-83
2023/08/13 11:10:33;;;;;;;4.82;1.75;;;;;;;;;;5012407;28;20176;-83
2023/08/13 11:13:00;;;;;;;14.88;3.53;;;;;;;;;;5027903;28;20037;-84
2023/08/13 11:15:29;;;;;;;5.65;2.08;;;;;;;;;;5010001;28;20108;-83
2023/08/13 11:17:55;;;;;;;5.13;2.08;;;;;;;;;;5010825;28;20042;-84
2023/08/13 11:20:21;;;;;;;6.10;1.65;;;;;;;;;;5010868;28;20054;-84
2023/08/13 11:22:47;;;;;;;8.30;2.38;;;;;;;;;;5010881;28;20131;-80
2023/08/13 11:25:14;;;;;;;7.68;2.28;;;;;;;;;;5010669;28;20034;-83
2023/08/13 11:27:40;;;;;;;6.30;2.08;;;;;;;;;;5010023;28;20029;-82
2023/08/13 11:30:12;;;;;;;6.95;1.75;;;;;;;;;;5010649;28;20172;-85
2023/08/13 11:32:38;;;;;;;7.05;2.38;;;;;;;;;;5011070;28;20021;-80
2023/08/13 11:35:12;;;;;;;6.78;2.10;;;;;;;;;;5005172;28;20121;-82
2023/08/13 11:37:38;;;;;;;4.30;1.85;;;;;;;;;;5026197;28;20029;-80
2023/08/13 11:40:11;;;;;;;9.65;2.40;;;;;;;;;;5011788;28;20034;-84
2023/08/13 11:42:57;;;;;;;7.00;2.00;;;;;;;;;;5011590;28;20034;-83
2023/08/13 11:45:24;;;;;;;9.80;2.35;;;;;;;;;;5011932;28;20463;-82
2023/08/13 11:47:51;;;;;;;5.47;2.13;;;;;;;;;;5022130;28;20041;-80
2023/08/13 11:50:21;;;;;;;6.63;1.83;;;;;;;;;;5010176;28;20157;-81
2023/08/13 11:53:06;;;;;;;7.05;2.22;;;;;;;;;;5009461;28;20112;-84
2023/08/13 11:55:34;;;;;;;9.98;2.45;;;;;;;;;;5005337;28;20041;-84
2023/08/13 11:58:00;;;;;;;6.88;2.30;;;;;;;;;;5009811;28;20113;-82
2023/08/13 12:00:26;;;;;;;9.70;2.28;;;;;;;;;;5010093;28;20556;-83
2023/08/13 12:03:01;;;;;;;7.63;2.58;;;;;;;;;;5009836;28;20112;-83
2023/08/13 12:05:27;;;;;;;8.13;2.70;;;;;;;;;;5010867;28;20109;-81
2023/08/13 12:07:56;;;;;;;4.35;1.92;;;;;;;;;;5026268;28;20026;-84
2023/08/13 12:10:22;;;;;;;5.40;2.15;;;;;;;;;;5021465;28;20679;-84
2023/08/13 12:12:50;;;;;;;7.07;2.25;;;;;;;;;;5026597;28;20047;-84
2023/08/13 12:15:18;;;;;;;4.88;2.10;;;;;;;;;;5009997;28;20029;-80
2023/08/13 12:17:46;;;;;;;15.52;2.97;;;;;;;;;;5025525;28;20029;-83
2023/08/13 12:20:12;;;;;;;5.97;2.22;;;;;;;;;;5009547;28;20033;-82
2023/08/13 12:22:39;;;;;;;5.65;1.75;;;;;;;;;;5026368;28;20032;-84
2023/08/13 12:25:08;;;;;;;9.63;1.83;;;;;;;;;;5027146;28;20671;-84
2023/08/13 12:27:35;;;;;;;5.53;2.17;;;;;;;;;;5009572;28;20022;-80
2023/08/13 12:30:01;;;;;;;6.47;2.00;;;;;;;;;;5008684;28;20026;-83
2023/08/13 12:32:29;;;;;;;7.93;1.90;;;;;;;;;;5010695;28;20026;-83
2023/08/13 12:34:55;;;;;;;7.78;2.28;;;;;;;;;;5009981;28;20364;-80
2023/08/13 12:37:21;;;;;;;9.90;2.30;;;;;;;;;;5025317;28;20060;-84
2023/08/13 12:39:48;;;;;;;5.05;1.75;;;;;;;;;;5009213;28;20443;-82
2023/08/13 12:42:14;;;;;;;4.82;1.75;;;;;;;;;;5012710;28;20026;-82
2023/08/13 12:44:40;;;;;;;4.18;1.42;;;;;;;;;;5010963;28;21120;-83
2023/08/13 12:47:09;;;;;;;7.40;2.10;;;;;;;;;;5010796;28;20029;-85
2023/08/13 12:49:35;;;;;;;5.35;1.60;;;;;;;;;;5020928;28;20438;-82
2023/08/13 12:52:01;;;;;;;4.35;1.10;;;;;;;;;;5025063;28;20703;-84
2023/08/13 12:54:28;;;;;;;6.40;2.10;;;;;;;;;;5023856;28;20029;-85
2023/08/13 12:56:54;;;;;;;6.72;1.75;;;;;;;;;;5009958;28;20036;-82
2023/08/13 12:59:20;;;;;;;2.53;1.40;;;;;;;;;;5009242;28;20034;-84
2023/08/13 13:01:46;;;;;;;5.00;1.98;;;;;;;;;;5010287;28;20691;-84
2023/08/13 13:04:12;;;;;;;4.47;1.30;;;;;;;;;;5008927;28;20037;-82
2023/08/13 13:06:40;;;;;;;2.70;1.33;;;;;;;;;;5024717;28;20599;-85
2023/08/13 13:09:06;;;;;;;5.40;1.75;;;;;;;;;;5009281;28;20112;-82
2023/08/13 13:11:32;;;;;;;3.95;1.23;;;;;;;;;;5009644;28;20036;-83
2023/08/13 13:14:03;;;;;;;2.90;1.00;;;;;;;;;;5020283;28;20068;-85
2023/08/13 13:16:29;;;;;;;2.97;1.20;;;;;;;;;;5009439;28;20034;-85
2023/08/13 13:18:55;;;;;;;4.55;1.45;;;;;;;;;;5025642;28;20029;-83
2023/08/13 13:21:23;;;;;;;5.75;0.88;;;;;;;;;;5008597;28;20136;-82
2023/08/13 13:23:50;;;;;;;7.50;1.17;;;;;;;;;;5007901;28;20029;-83
2023/08/13 13:26:16;;;;;;;3.50;1.42;;;;;;;;;;5009488;28;20442;-82
2023/08/13 13:28:42;;;;;;;2.38;0.77;;;;;;;;;;5020310;28;20041;-85
2023/08/13 13:31:08;;;;;;;4.20;1.75;;;;;;;;;;5008294;28;20030;-85
2023/08/13 13:33:34;;;;;;;4.07;1.35;;;;;;;;;;5009335;28;20593;-82
2023/08/13 13:36:00;;;;;;;4.35;1.60;;;;;;;;;;5007812;28;20033;-83
2023/08/13 13:38:26;;;;;;;7.35;1.58;;;;;;;;;;5009173;28;20045;-83
2023/08/13 13:40:52;;;;;;;4.55;1.30;;;;;;;;;;5008279;28;20117;-82
2023/08/13 13:43:18;;;;;;;2.80;1.20;;;;;;;;;;5006906;28;20034;-84
2023/08/13 13:45:45;;;;;;;2.55;1.02;;;;;;;;;;5009679;28;20030;-84
2023/08/13 13:48:11;;;;;;;3.55;1.25;;;;;;;;;;5008486;28;20026;-81
2023/08/13 13:50:37;;;;;;;2.22;1.13;;;;;;;;;;5009649;28;20137;-82
2023/08/13 13:53:03;;;;;;;6.68;1.35;;;;;;;;;;5020379;28;20455;-88
2023/08/13 13:55:29;;;;;;;5.63;1.45;;;;;;;;;;5007051;28;20041;-80
2023/08/13 13:57:55;;;;;;;3.28;0.98;;;;;;;;;;5021095;28;20081;-86
2023/08/13 14:00:21;;;;;;;2.42;1.17;;;;;;;;;;5027754;28;20452;-85
2023/08/13 14:02:47;;;;;;;2.67;1.40;;;;;;;;;;5013346;28;20042;-82
2023/08/13 14:05:13;;;;;;;3.83;1.30;;;;;;;;;;5028809;28;20036;-86
2023/08/13 14:07:39;;;;;;;6.82;1.30;;;;;;;;;;5012591;28;20036;-86
2023/08/13 14:10:05;;;;;;;3.38;1.25;;;;;;;;;;5011791;28;20030;-82
2023/08/13 14:12:31;;;;;;;3.63;1.10;;;;;;;;;;5014317;28;22005;-87
2023/08/13 14:14:57;;;;;;;2.55;1.20;;;;;;;;;;5011772;28;20041;-86
2023/08/13 14:17:26;;;;;;;5.82;1.10;;;;;;;;;;5012471;28;20527;-82
2023/08/13 14:19:52;;;;;;;4.63;1.20;;;;;;;;;;5025451;28;20052;-85
2023/08/13 14:22:18;;;;;;;5.63;1.38;;;;;;;;;;5007349;28;20446;-81
2023/08/13 14:24:44;;;;;;;3.10;1.05;;;;;;;;;;5011821;28;20041;-85
2023/08/13 14:27:10;;;;;;;8.10;1.45;;;;;;;;;;5011736;28;20022;-86
2023/08/13 14:29:39;;;;;;;7.53;1.25;;;;;;;;;;5010582;28;20867;-82
2023/08/13 14:32:05;;;;;;;8.23;1.70;;;;;;;;;;5015064;28;20026;-86
2023/08/13 14:34:31;;;;;;;3.25;1.20;;;;;;;;;;5023923;28;20026;-84
2023/08/13 14:36:57;;;;;;;6.13;1.70;;;;;;;;;;5010440;28;20049;-81
2023/08/13 14:39:23;;;;;;;4.03;1.45;;;;;;;;;;5027590;28;20070;-84
2023/08/13 14:41:50;;;;;;;3.42;1.17;;;;;;;;;;5025668;28;20034;-80